sensor_id;sensor_type;location;lat;lon;timestamp;P1;durP1;ratioP1;P2;durP2;ratioP2
37655;SDS011;23498;50.958;3.124;2023-05-16T00:01:13;12.48;;;2.63;;
37655;SDS011;23498;50.958;3.124;2023-05-16T00:03:40;12.77;;;2.08;;
37655;SDS011;23498;50.958;3.124;2023-05-16T00:06:07;13.82;;;2.72;;
37655;SDS011;23498;50.958;3.124;2023-05-16T00:08:33;13.30;;;2.22;;
37655;SDS011;23498;50.958;3.124;2023-05-16T00:10:59;12.77;;;2.30;;
37655;SDS011;23498;50.958;3.124;2023-05-16T00:13:25;14.38;;;2.50;;
37655;SDS011;23498;50.958;3.124;2023-05-16T00:15:52;8.45;;;2.35;;
37655;SDS011;23498;50.958;3.124;2023-05-16T00:18:19;13.98;;;2.85;;
37655;SDS011;23498;50.958;3.124;2023-05-16T00:20:46;10.10;;;2.88;;
37655;SDS011;23498;50.958;3.124;2023-05-16T00:23:13;13.00;;;2.70;;
37655;SDS011;23498;50.958;3.124;2023-05-16T00:25:39;15.95;;;2.45;;
37655;SDS011;23498;50.958;3.124;2023-05-16T00:28:05;7.93;;;2.20;;
37655;SDS011;23498;50.958;3.124;2023-05-16T00:30:32;9.52;;;2.25;;
37655;SDS011;23498;50.958;3.124;2023-05-16T00:32:58;16.05;;;2.20;;
37655;SDS011;23498;50.958;3.124;2023-05-16T00:35:24;10.73;;;2.20;;
37655;SDS011;23498;50.958;3.124;2023-05-16T00:37:51;10.52;;;2.28;;
37655;SDS011;23498;50.958;3.124;2023-05-16T00:40:17;8.90;;;2.30;;
37655;SDS011;23498;50.958;3.124;2023-05-16T00:42:43;11.98;;;2.42;;
37655;SDS011;23498;50.958;3.124;2023-05-16T00:45:09;12.55;;;2.25;;
37655;SDS011;23498;50.958;3.124;2023-05-16T00:47:36;13.55;;;2.97;;
37655;SDS011;23498;50.958;3.124;2023-05-16T00:50:02;11.45;;;2.50;;
37655;SDS011;23498;50.958;3.124;2023-05-16T00:52:29;17.50;;;2.67;;
37655;SDS011;23498;50.958;3.124;2023-05-16T00:54:57;13.93;;;2.53;;
37655;SDS011;23498;50.958;3.124;2023-05-16T00:57:23;11.98;;;2.47;;
37655;SDS011;23498;50.958;3.124;2023-05-16T00:59:50;14.88;;;2.50;;
37655;SDS011;23498;50.958;3.124;2023-05-16T01:02:16;12.30;;;2.30;;
37655;SDS011;23498;50.958;3.124;2023-05-16T01:04:42;13.07;;;2.97;;
37655;SDS011;23498;50.958;3.124;2023-05-16T01:07:08;10.55;;;2.65;;
37655;SDS011;23498;50.958;3.124;2023-05-16T01:09:34;12.88;;;3.15;;
37655;SDS011;23498;50.958;3.124;2023-05-16T01:12:06;10.23;;;2.25;;
37655;SDS011;23498;50.958;3.124;2023-05-16T01:17:04;9.35;;;2.35;;
37655;SDS011;23498;50.958;3.124;2023-05-16T01:19:40;8.50;;;2.42;;
37655;SDS011;23498;50.958;3.124;2023-05-16T01:22:11;9.85;;;2.78;;
37655;SDS011;23498;50.958;3.124;2023-05-16T01:27:26;9.07;;;2.15;;
37655;SDS011;23498;50.958;3.124;2023-05-16T01:29:57;18.30;;;2.90;;
37655;SDS011;23498;50.958;3.124;2023-05-16T01:32:23;12.30;;;2.47;;
37655;SDS011;23498;50.958;3.124;2023-05-16T01:34:49;12.15;;;2.65;;
37655;SDS011;23498;50.958;3.124;2023-05-16T01:40:21;11.02;;;2.65;;
37655;SDS011;23498;50.958;3.124;2023-05-16T01:42:49;10.40;;;2.45;;
37655;SDS011;23498;50.958;3.124;2023-05-16T01:45:23;6.97;;;2.03;;
37655;SDS011;23498;50.958;3.124;2023-05-16T01:47:56;7.75;;;2.10;;
37655;SDS011;23498;50.958;3.124;2023-05-16T01:50:24;8.10;;;2.33;;
37655;SDS011;23498;50.958;3.124;2023-05-16T01:52:57;12.27;;;3.67;;
37655;SDS011;23498;50.958;3.124;2023-05-16T01:57:57;12.52;;;2.60;;
37655;SDS011;23498;50.958;3.124;2023-05-16T02:00:24;11.10;;;2.20;;
37655;SDS011;23498;50.958;3.124;2023-05-16T02:02:50;11.45;;;2.60;;
37655;SDS011;23498;50.958;3.124;2023-05-16T02:05:15;12.45;;;2.78;;
37655;SDS011;23498;50.958;3.124;2023-05-16T02:07:42;10.45;;;2.95;;
37655;SDS011;23498;50.958;3.124;2023-05-16T02:10:08;13.90;;;2.80;;
37655;SDS011;23498;50.958;3.124;2023-05-16T02:12:35;11.05;;;2.60;;
37655;SDS011;23498;50.958;3.124;2023-05-16T02:15:01;12.23;;;2.75;;
37655;SDS011;23498;50.958;3.124;2023-05-16T02:17:27;10.30;;;2.55;;
37655;SDS011;23498;50.958;3.124;2023-05-16T02:19:53;7.97;;;2.30;;
37655;SDS011;23498;50.958;3.124;2023-05-16T02:22:19;9.13;;;2.53;;
37655;SDS011;23498;50.958;3.124;2023-05-16T02:24:45;8.00;;;3.10;;
37655;SDS011;23498;50.958;3.124;2023-05-16T02:27:11;8.20;;;3.47;;
37655;SDS011;23498;50.958;3.124;2023-05-16T02:29:37;11.63;;;2.65;;
37655;SDS011;23498;50.958;3.124;2023-05-16T02:32:03;14.25;;;3.60;;
37655;SDS011;23498;50.958;3.124;2023-05-16T02:34:29;10.77;;;2.80;;
37655;SDS011;23498;50.958;3.124;2023-05-16T02:36:55;8.77;;;2.85;;
37655;SDS011;23498;50.958;3.124;2023-05-16T02:39:21;9.15;;;3.10;;
37655;SDS011;23498;50.958;3.124;2023-05-16T02:41:47;11.75;;;3.30;;
37655;SDS011;23498;50.958;3.124;2023-05-16T02:44:13;10.95;;;2.80;;
37655;SDS011;23498;50.958;3.124;2023-05-16T02:46:40;10.40;;;3.05;;
37655;SDS011;23498;50.958;3.124;2023-05-16T02:49:06;12.80;;;3.53;;
37655;SDS011;23498;50.958;3.124;2023-05-16T02:51:32;11.10;;;3.20;;
37655;SDS011;23498;50.958;3.124;2023-05-16T02:53:58;11.25;;;3.78;;
37655;SDS011;23498;50.958;3.124;2023-05-16T02:56:25;10.32;;;4.03;;
37655;SDS011;23498;50.958;3.124;2023-05-16T02:58:52;12.40;;;3.60;;
37655;SDS011;23498;50.958;3.124;2023-05-16T03:01:18;15.30;;;3.45;;
37655;SDS011;23498;50.958;3.124;2023-05-16T03:03:44;13.07;;;3.95;;
37655;SDS011;23498;50.958;3.124;2023-05-16T03:06:11;10.57;;;3.85;;
37655;SDS011;23498;50.958;3.124;2023-05-16T03:08:37;15.23;;;3.67;;
37655;SDS011;23498;50.958;3.124;2023-05-16T03:11:03;13.15;;;3.67;;
37655;SDS011;23498;50.958;3.124;2023-05-16T03:13:29;14.85;;;3.45;;
37655;SDS011;23498;50.958;3.124;2023-05-16T03:15:55;12.77;;;3.20;;
37655;SDS011;23498;50.958;3.124;2023-05-16T03:18:21;11.38;;;3.65;;
37655;SDS011;23498;50.958;3.124;2023-05-16T03:20:47;11.07;;;3.65;;
37655;SDS011;23498;50.958;3.124;2023-05-16T03:23:13;8.13;;;2.88;;
37655;SDS011;23498;50.958;3.124;2023-05-16T03:25:39;9.23;;;3.13;;
37655;SDS011;23498;50.958;3.124;2023-05-16T03:28:07;13.05;;;3.42;;
37655;SDS011;23498;50.958;3.124;2023-05-16T03:30:33;14.55;;;3.13;;
37655;SDS011;23498;50.958;3.124;2023-05-16T03:32:59;10.40;;;3.03;;
37655;SDS011;23498;50.958;3.124;2023-05-16T03:35:26;6.22;;;2.42;;
37655;SDS011;23498;50.958;3.124;2023-05-16T03:37:52;9.20;;;2.60;;
37655;SDS011;23498;50.958;3.124;2023-05-16T03:40:18;6.60;;;2.60;;
37655;SDS011;23498;50.958;3.124;2023-05-16T03:42:45;11.02;;;3.00;;
37655;SDS011;23498;50.958;3.124;2023-05-16T03:45:11;4.72;;;2.20;;
37655;SDS011;23498;50.958;3.124;2023-05-16T03:47:37;10.05;;;2.70;;
37655;SDS011;23498;50.958;3.124;2023-05-16T03:50:04;6.75;;;2.63;;
37655;SDS011;23498;50.958;3.124;2023-05-16T03:52:30;5.65;;;2.80;;
37655;SDS011;23498;50.958;3.124;2023-05-16T03:54:56;14.98;;;3.20;;
37655;SDS011;23498;50.958;3.124;2023-05-16T03:57:22;10.55;;;2.80;;
37655;SDS011;23498;50.958;3.124;2023-05-16T03:59:48;12.43;;;2.83;;
37655;SDS011;23498;50.958;3.124;2023-05-16T04:02:14;13.40;;;3.22;;
37655;SDS011;23498;50.958;3.124;2023-05-16T04:04:40;15.02;;;3.40;;
37655;SDS011;23498;50.958;3.124;2023-05-16T04:07:06;13.55;;;3.08;;
37655;SDS011;23498;50.958;3.124;2023-05-16T04:09:32;11.50;;;2.90;;
37655;SDS011;23498;50.958;3.124;2023-05-16T04:11:58;9.80;;;2.70;;
37655;SDS011;23498;50.958;3.124;2023-05-16T04:14:27;9.75;;;3.25;;
37655;SDS011;23498;50.958;3.124;2023-05-16T04:16:53;9.85;;;3.05;;
37655;SDS011;23498;50.958;3.124;2023-05-16T04:19:19;15.57;;;3.38;;
37655;SDS011;23498;50.958;3.124;2023-05-16T04:21:45;10.77;;;3.55;;
37655;SDS011;23498;50.958;3.124;2023-05-16T04:24:11;14.27;;;3.55;;
37655;SDS011;23498;50.958;3.124;2023-05-16T04:26:37;10.82;;;3.20;;
37655;SDS011;23498;50.958;3.124;2023-05-16T04:29:03;11.32;;;3.30;;
37655;SDS011;23498;50.958;3.124;2023-05-16T04:31:30;12.43;;;3.10;;
37655;SDS011;23498;50.958;3.124;2023-05-16T04:33:56;14.57;;;3.58;;
37655;SDS011;23498;50.958;3.124;2023-05-16T04:36:22;9.02;;;2.72;;
37655;SDS011;23498;50.958;3.124;2023-05-16T04:38:48;8.75;;;2.97;;
37655;SDS011;23498;50.958;3.124;2023-05-16T04:41:14;10.93;;;3.33;;
37655;SDS011;23498;50.958;3.124;2023-05-16T04:43:41;9.80;;;2.97;;
37655;SDS011;23498;50.958;3.124;2023-05-16T04:46:07;14.48;;;3.20;;
37655;SDS011;23498;50.958;3.124;2023-05-16T04:48:34;8.20;;;2.90;;
37655;SDS011;23498;50.958;3.124;2023-05-16T04:51:00;12.48;;;3.00;;
37655;SDS011;23498;50.958;3.124;2023-05-16T04:53:26;8.68;;;3.15;;
37655;SDS011;23498;50.958;3.124;2023-05-16T04:55:52;9.88;;;3.38;;
37655;SDS011;23498;50.958;3.124;2023-05-16T04:58:18;11.60;;;3.20;;
37655;SDS011;23498;50.958;3.124;2023-05-16T05:00:44;9.48;;;2.85;;
37655;SDS011;23498;50.958;3.124;2023-05-16T05:03:11;8.95;;;3.03;;
37655;SDS011;23498;50.958;3.124;2023-05-16T05:05:37;8.00;;;2.67;;
37655;SDS011;23498;50.958;3.124;2023-05-16T05:08:03;11.57;;;3.10;;
37655;SDS011;23498;50.958;3.124;2023-05-16T05:10:30;11.48;;;3.22;;
37655;SDS011;23498;50.958;3.124;2023-05-16T05:12:56;9.05;;;3.10;;
37655;SDS011;23498;50.958;3.124;2023-05-16T05:15:22;12.13;;;3.20;;
37655;SDS011;23498;50.958;3.124;2023-05-16T05:17:48;10.05;;;3.10;;
37655;SDS011;23498;50.958;3.124;2023-05-16T05:20:14;12.38;;;3.30;;
37655;SDS011;23498;50.958;3.124;2023-05-16T05:22:40;11.32;;;3.10;;
37655;SDS011;23498;50.958;3.124;2023-05-16T05:25:07;10.10;;;3.03;;
37655;SDS011;23498;50.958;3.124;2023-05-16T05:27:33;10.65;;;2.80;;
37655;SDS011;23498;50.958;3.124;2023-05-16T05:29:59;7.53;;;2.75;;
37655;SDS011;23498;50.958;3.124;2023-05-16T05:32:25;9.05;;;3.00;;
37655;SDS011;23498;50.958;3.124;2023-05-16T05:34:51;11.68;;;2.97;;
37655;SDS011;23498;50.958;3.124;2023-05-16T05:37:17;8.65;;;3.03;;
37655;SDS011;23498;50.958;3.124;2023-05-16T05:39:43;10.15;;;2.70;;
37655;SDS011;23498;50.958;3.124;2023-05-16T05:42:10;13.73;;;3.10;;
37655;SDS011;23498;50.958;3.124;2023-05-16T05:44:36;12.27;;;2.72;;
37655;SDS011;23498;50.958;3.124;2023-05-16T05:47:02;10.15;;;2.70;;
37655;SDS011;23498;50.958;3.124;2023-05-16T05:49:29;11.18;;;2.85;;
37655;SDS011;23498;50.958;3.124;2023-05-16T05:51:55;12.68;;;2.50;;
37655;SDS011;23498;50.958;3.124;2023-05-16T05:54:22;8.48;;;2.53;;
37655;SDS011;23498;50.958;3.124;2023-05-16T05:56:48;9.00;;;2.72;;
37655;SDS011;23498;50.958;3.124;2023-05-16T05:59:14;8.25;;;2.35;;
37655;SDS011;23498;50.958;3.124;2023-05-16T06:01:41;12.23;;;2.60;;
37655;SDS011;23498;50.958;3.124;2023-05-16T06:04:08;8.20;;;2.30;;
37655;SDS011;23498;50.958;3.124;2023-05-16T06:06:35;9.45;;;2.58;;
37655;SDS011;23498;50.958;3.124;2023-05-16T06:09:01;7.13;;;2.38;;
37655;SDS011;23498;50.958;3.124;2023-05-16T06:11:27;9.88;;;2.47;;
37655;SDS011;23498;50.958;3.124;2023-05-16T06:13:53;8.43;;;3.00;;
37655;SDS011;23498;50.958;3.124;2023-05-16T06:16:23;9.15;;;2.33;;
37655;SDS011;23498;50.958;3.124;2023-05-16T06:18:50;11.25;;;2.30;;
37655;SDS011;23498;50.958;3.124;2023-05-16T06:21:16;10.52;;;2.47;;
37655;SDS011;23498;50.958;3.124;2023-05-16T06:23:42;11.25;;;2.22;;
37655;SDS011;23498;50.958;3.124;2023-05-16T06:26:08;8.93;;;2.20;;
37655;SDS011;23498;50.958;3.124;2023-05-16T06:28:34;7.45;;;2.05;;
37655;SDS011;23498;50.958;3.124;2023-05-16T06:31:00;10.32;;;2.00;;
37655;SDS011;23498;50.958;3.124;2023-05-16T06:33:26;8.45;;;2.10;;
37655;SDS011;23498;50.958;3.124;2023-05-16T06:35:52;9.50;;;2.50;;
37655;SDS011;23498;50.958;3.124;2023-05-16T06:38:18;11.10;;;1.85;;
37655;SDS011;23498;50.958;3.124;2023-05-16T06:40:44;9.32;;;1.83;;
37655;SDS011;23498;50.958;3.124;2023-05-16T06:43:10;11.45;;;2.25;;
37655;SDS011;23498;50.958;3.124;2023-05-16T06:45:36;9.82;;;2.10;;
37655;SDS011;23498;50.958;3.124;2023-05-16T06:48:03;6.35;;;1.65;;
37655;SDS011;23498;50.958;3.124;2023-05-16T06:50:29;16.25;;;1.95;;
37655;SDS011;23498;50.958;3.124;2023-05-16T06:52:55;8.95;;;2.05;;
37655;SDS011;23498;50.958;3.124;2023-05-16T06:55:21;12.73;;;1.83;;
37655;SDS011;23498;50.958;3.124;2023-05-16T06:57:47;10.43;;;2.05;;
37655;SDS011;23498;50.958;3.124;2023-05-16T07:00:14;11.35;;;1.50;;
37655;SDS011;23498;50.958;3.124;2023-05-16T07:02:40;9.10;;;1.58;;
37655;SDS011;23498;50.958;3.124;2023-05-16T07:05:06;5.90;;;1.33;;
37655;SDS011;23498;50.958;3.124;2023-05-16T07:07:32;9.57;;;1.63;;
37655;SDS011;23498;50.958;3.124;2023-05-16T07:09:58;9.98;;;1.60;;
37655;SDS011;23498;50.958;3.124;2023-05-16T07:12:24;7.43;;;1.30;;
37655;SDS011;23498;50.958;3.124;2023-05-16T07:14:50;8.38;;;1.65;;
37655;SDS011;23498;50.958;3.124;2023-05-16T07:17:17;15.43;;;2.08;;
37655;SDS011;23498;50.958;3.124;2023-05-16T07:19:43;8.93;;;1.50;;
37655;SDS011;23498;50.958;3.124;2023-05-16T07:22:09;8.10;;;1.60;;
37655;SDS011;23498;50.958;3.124;2023-05-16T07:24:36;10.55;;;1.60;;
37655;SDS011;23498;50.958;3.124;2023-05-16T07:27:02;11.95;;;1.48;;
37655;SDS011;23498;50.958;3.124;2023-05-16T07:29:28;7.35;;;1.40;;
37655;SDS011;23498;50.958;3.124;2023-05-16T07:31:54;5.85;;;1.02;;
37655;SDS011;23498;50.958;3.124;2023-05-16T07:34:20;5.32;;;1.33;;
37655;SDS011;23498;50.958;3.124;2023-05-16T07:36:46;7.20;;;1.40;;
37655;SDS011;23498;50.958;3.124;2023-05-16T07:39:12;4.90;;;1.00;;
37655;SDS011;23498;50.958;3.124;2023-05-16T07:41:38;6.07;;;1.15;;
37655;SDS011;23498;50.958;3.124;2023-05-16T07:44:05;9.18;;;1.92;;
37655;SDS011;23498;50.958;3.124;2023-05-16T07:46:31;6.10;;;1.13;;
37655;SDS011;23498;50.958;3.124;2023-05-16T07:48:57;8.48;;;1.35;;
37655;SDS011;23498;50.958;3.124;2023-05-16T07:51:23;8.02;;;1.23;;
37655;SDS011;23498;50.958;3.124;2023-05-16T07:53:49;4.30;;;1.00;;
37655;SDS011;23498;50.958;3.124;2023-05-16T07:56:15;4.47;;;0.80;;
37655;SDS011;23498;50.958;3.124;2023-05-16T07:58:43;5.50;;;1.27;;
37655;SDS011;23498;50.958;3.124;2023-05-16T08:01:09;7.60;;;1.05;;
37655;SDS011;23498;50.958;3.124;2023-05-16T08:03:35;8.50;;;1.52;;
37655;SDS011;23498;50.958;3.124;2023-05-16T08:06:01;5.75;;;1.35;;
37655;SDS011;23498;50.958;3.124;2023-05-16T08:08:27;5.90;;;1.08;;
37655;SDS011;23498;50.958;3.124;2023-05-16T08:10:53;6.88;;;1.10;;
37655;SDS011;23498;50.958;3.124;2023-05-16T08:13:19;4.80;;;1.00;;
37655;SDS011;23498;50.958;3.124;2023-05-16T08:15:46;5.40;;;1.13;;
37655;SDS011;23498;50.958;3.124;2023-05-16T08:18:12;8.65;;;1.20;;
37655;SDS011;23498;50.958;3.124;2023-05-16T08:20:39;3.78;;;0.95;;
37655;SDS011;23498;50.958;3.124;2023-05-16T08:23:06;5.80;;;0.95;;
37655;SDS011;23498;50.958;3.124;2023-05-16T08:25:32;8.52;;;1.40;;
37655;SDS011;23498;50.958;3.124;2023-05-16T08:27:58;6.00;;;1.08;;
37655;SDS011;23498;50.958;3.124;2023-05-16T08:30:29;4.80;;;1.00;;
37655;SDS011;23498;50.958;3.124;2023-05-16T08:33:01;5.75;;;1.23;;
37655;SDS011;23498;50.958;3.124;2023-05-16T08:35:29;7.07;;;1.25;;
37655;SDS011;23498;50.958;3.124;2023-05-16T08:37:55;8.98;;;1.27;;
37655;SDS011;23498;50.958;3.124;2023-05-16T08:40:23;3.70;;;0.88;;
37655;SDS011;23498;50.958;3.124;2023-05-16T08:42:51;7.18;;;1.10;;
37655;SDS011;23498;50.958;3.124;2023-05-16T08:45:17;6.82;;;1.65;;
37655;SDS011;23498;50.958;3.124;2023-05-16T08:47:43;5.82;;;0.85;;
37655;SDS011;23498;50.958;3.124;2023-05-16T08:50:10;8.43;;;1.10;;
37655;SDS011;23498;50.958;3.124;2023-05-16T08:52:37;5.28;;;1.00;;
37655;SDS011;23498;50.958;3.124;2023-05-16T08:55:04;4.57;;;1.13;;
37655;SDS011;23498;50.958;3.124;2023-05-16T08:57:32;4.93;;;1.10;;
37655;SDS011;23498;50.958;3.124;2023-05-16T08:59:58;4.07;;;0.98;;
37655;SDS011;23498;50.958;3.124;2023-05-16T09:02:25;5.55;;;1.35;;
37655;SDS011;23498;50.958;3.124;2023-05-16T09:04:51;2.67;;;0.70;;
37655;SDS011;23498;50.958;3.124;2023-05-16T09:07:17;5.88;;;0.93;;
37655;SDS011;23498;50.958;3.124;2023-05-16T09:09:44;8.65;;;3.40;;
37655;SDS011;23498;50.958;3.124;2023-05-16T09:12:10;4.60;;;1.33;;
37655;SDS011;23498;50.958;3.124;2023-05-16T09:14:36;3.83;;;1.00;;
37655;SDS011;23498;50.958;3.124;2023-05-16T09:17:05;4.10;;;0.93;;
37655;SDS011;23498;50.958;3.124;2023-05-16T09:19:32;4.65;;;1.42;;
37655;SDS011;23498;50.958;3.124;2023-05-16T09:22:02;4.90;;;1.05;;
37655;SDS011;23498;50.958;3.124;2023-05-16T09:24:28;4.57;;;0.85;;
37655;SDS011;23498;50.958;3.124;2023-05-16T09:26:54;4.10;;;1.10;;
37655;SDS011;23498;50.958;3.124;2023-05-16T09:29:20;7.55;;;1.48;;
37655;SDS011;23498;50.958;3.124;2023-05-16T09:31:48;5.03;;;0.90;;
37655;SDS011;23498;50.958;3.124;2023-05-16T09:34:14;5.28;;;1.10;;
37655;SDS011;23498;50.958;3.124;2023-05-16T09:36:40;6.00;;;1.20;;
37655;SDS011;23498;50.958;3.124;2023-05-16T09:39:06;6.30;;;1.13;;
37655;SDS011;23498;50.958;3.124;2023-05-16T09:41:32;3.63;;;0.70;;
37655;SDS011;23498;50.958;3.124;2023-05-16T09:44:02;3.63;;;0.88;;
37655;SDS011;23498;50.958;3.124;2023-05-16T09:46:28;3.83;;;0.80;;
37655;SDS011;23498;50.958;3.124;2023-05-16T09:48:55;6.80;;;1.10;;
37655;SDS011;23498;50.958;3.124;2023-05-16T09:51:21;5.18;;;1.10;;
37655;SDS011;23498;50.958;3.124;2023-05-16T09:53:47;6.18;;;1.20;;
37655;SDS011;23498;50.958;3.124;2023-05-16T09:56:14;5.55;;;0.93;;
37655;SDS011;23498;50.958;3.124;2023-05-16T09:58:41;5.00;;;1.30;;
37655;SDS011;23498;50.958;3.124;2023-05-16T10:01:08;5.65;;;1.45;;
37655;SDS011;23498;50.958;3.124;2023-05-16T10:03:36;6.85;;;1.35;;
37655;SDS011;23498;50.958;3.124;2023-05-16T10:06:03;5.28;;;1.00;;
37655;SDS011;23498;50.958;3.124;2023-05-16T10:08:30;5.75;;;1.10;;
37655;SDS011;23498;50.958;3.124;2023-05-16T10:10:56;6.75;;;1.40;;
37655;SDS011;23498;50.958;3.124;2023-05-16T10:13:23;5.85;;;0.90;;
37655;SDS011;23498;50.958;3.124;2023-05-16T10:15:54;3.83;;;0.77;;
37655;SDS011;23498;50.958;3.124;2023-05-16T10:18:21;4.07;;;0.85;;
37655;SDS011;23498;50.958;3.124;2023-05-16T10:20:48;2.03;;;0.73;;
37655;SDS011;23498;50.958;3.124;2023-05-16T10:23:16;3.65;;;0.85;;
37655;SDS011;23498;50.958;3.124;2023-05-16T10:25:42;4.78;;;0.98;;
37655;SDS011;23498;50.958;3.124;2023-05-16T10:28:09;5.70;;;0.82;;
37655;SDS011;23498;50.958;3.124;2023-05-16T10:30:53;5.72;;;1.40;;
37655;SDS011;23498;50.958;3.124;2023-05-16T10:33:33;5.97;;;1.00;;
37655;SDS011;23498;50.958;3.124;2023-05-16T10:36:00;5.13;;;0.90;;
37655;SDS011;23498;50.958;3.124;2023-05-16T10:38:27;2.20;;;0.68;;
37655;SDS011;23498;50.958;3.124;2023-05-16T10:40:54;4.65;;;0.82;;
37655;SDS011;23498;50.958;3.124;2023-05-16T10:43:24;3.05;;;0.82;;
37655;SDS011;23498;50.958;3.124;2023-05-16T10:45:54;7.63;;;1.52;;
37655;SDS011;23498;50.958;3.124;2023-05-16T10:48:27;7.25;;;1.05;;
37655;SDS011;23498;50.958;3.124;2023-05-16T10:50:54;4.88;;;0.98;;
37655;SDS011;23498;50.958;3.124;2023-05-16T10:53:30;4.57;;;0.80;;
37655;SDS011;23498;50.958;3.124;2023-05-16T11:06:27;6.47;;;1.37;;
37655;SDS011;23498;50.958;3.124;2023-05-16T11:19:27;3.92;;;0.70;;
37655;SDS011;23498;50.958;3.124;2023-05-16T11:27:18;3.58;;;0.60;;
37655;SDS011;23498;50.958;3.124;2023-05-16T11:29:45;5.22;;;0.80;;
37655;SDS011;23498;50.958;3.124;2023-05-16T11:32:11;5.07;;;0.80;;
37655;SDS011;23498;50.958;3.124;2023-05-16T11:34:37;4.28;;;0.75;;
37655;SDS011;23498;50.958;3.124;2023-05-16T11:37:03;2.72;;;0.63;;
37655;SDS011;23498;50.958;3.124;2023-05-16T11:39:30;3.03;;;0.80;;
37655;SDS011;23498;50.958;3.124;2023-05-16T11:41:56;3.17;;;0.60;;
37655;SDS011;23498;50.958;3.124;2023-05-16T11:44:23;5.75;;;0.95;;
37655;SDS011;23498;50.958;3.124;2023-05-16T11:46:49;4.88;;;0.80;;
37655;SDS011;23498;50.958;3.124;2023-05-16T11:49:16;4.10;;;0.85;;
37655;SDS011;23498;50.958;3.124;2023-05-16T11:51:42;3.92;;;0.80;;
37655;SDS011;23498;50.958;3.124;2023-05-16T11:54:08;2.35;;;0.60;;
37655;SDS011;23498;50.958;3.124;2023-05-16T11:56:35;4.18;;;0.90;;
37655;SDS011;23498;50.958;3.124;2023-05-16T11:59:01;2.75;;;0.52;;
37655;SDS011;23498;50.958;3.124;2023-05-16T12:01:38;2.97;;;0.60;;
37655;SDS011;23498;50.958;3.124;2023-05-16T12:04:07;4.85;;;0.80;;
37655;SDS011;23498;50.958;3.124;2023-05-16T12:06:34;2.70;;;0.57;;
37655;SDS011;23498;50.958;3.124;2023-05-16T12:09:01;4.10;;;0.73;;
37655;SDS011;23498;50.958;3.124;2023-05-16T12:11:34;3.08;;;0.70;;
37655;SDS011;23498;50.958;3.124;2023-05-16T12:14:00;5.38;;;1.20;;
37655;SDS011;23498;50.958;3.124;2023-05-16T12:16:26;3.28;;;0.70;;
37655;SDS011;23498;50.958;3.124;2023-05-16T12:18:52;2.60;;;0.60;;
37655;SDS011;23498;50.958;3.124;2023-05-16T12:21:18;2.97;;;0.63;;
37655;SDS011;23498;50.958;3.124;2023-05-16T12:23:44;3.47;;;0.68;;
37655;SDS011;23498;50.958;3.124;2023-05-16T12:26:10;3.75;;;0.90;;
37655;SDS011;23498;50.958;3.124;2023-05-16T12:28:36;4.53;;;0.80;;
37655;SDS011;23498;50.958;3.124;2023-05-16T12:31:05;3.35;;;0.80;;
37655;SDS011;23498;50.958;3.124;2023-05-16T12:33:36;2.53;;;0.65;;
37655;SDS011;23498;50.958;3.124;2023-05-16T12:36:02;2.83;;;0.60;;
37655;SDS011;23498;50.958;3.124;2023-05-16T12:38:28;3.05;;;0.60;;
37655;SDS011;23498;50.958;3.124;2023-05-16T12:40:58;3.05;;;0.50;;
37655;SDS011;23498;50.958;3.124;2023-05-16T12:43:24;4.15;;;0.80;;
37655;SDS011;23498;50.958;3.124;2023-05-16T12:45:52;1.95;;;0.50;;
37655;SDS011;23498;50.958;3.124;2023-05-16T12:48:19;3.03;;;0.70;;
37655;SDS011;23498;50.958;3.124;2023-05-16T12:50:45;3.25;;;0.70;;
37655;SDS011;23498;50.958;3.124;2023-05-16T12:53:11;2.00;;;0.63;;
37655;SDS011;23498;50.958;3.124;2023-05-16T12:55:38;2.67;;;0.77;;
37655;SDS011;23498;50.958;3.124;2023-05-16T12:58:04;2.05;;;0.70;;
37655;SDS011;23498;50.958;3.124;2023-05-16T13:00:31;1.98;;;0.60;;
37655;SDS011;23498;50.958;3.124;2023-05-16T13:02:57;3.25;;;0.70;;
37655;SDS011;23498;50.958;3.124;2023-05-16T13:05:23;3.83;;;0.88;;
37655;SDS011;23498;50.958;3.124;2023-05-16T13:07:49;2.47;;;0.95;;
37655;SDS011;23498;50.958;3.124;2023-05-16T13:10:15;2.25;;;0.90;;
37655;SDS011;23498;50.958;3.124;2023-05-16T13:12:42;3.80;;;0.88;;
37655;SDS011;23498;50.958;3.124;2023-05-16T13:15:09;3.72;;;1.02;;
37655;SDS011;23498;50.958;3.124;2023-05-16T13:17:39;3.97;;;0.70;;
37655;SDS011;23498;50.958;3.124;2023-05-16T13:20:06;2.72;;;0.73;;
37655;SDS011;23498;50.958;3.124;2023-05-16T13:22:34;4.45;;;0.82;;
37655;SDS011;23498;50.958;3.124;2023-05-16T13:25:04;3.05;;;0.70;;
37655;SDS011;23498;50.958;3.124;2023-05-16T13:27:32;2.92;;;1.08;;
37655;SDS011;23498;50.958;3.124;2023-05-16T13:29:58;3.60;;;0.80;;
37655;SDS011;23498;50.958;3.124;2023-05-16T13:32:25;4.22;;;0.95;;
37655;SDS011;23498;50.958;3.124;2023-05-16T13:34:51;3.10;;;0.80;;
37655;SDS011;23498;50.958;3.124;2023-05-16T13:37:17;2.80;;;0.70;;
37655;SDS011;23498;50.958;3.124;2023-05-16T13:39:43;4.07;;;0.68;;
37655;SDS011;23498;50.958;3.124;2023-05-16T13:42:09;4.00;;;0.50;;
37655;SDS011;23498;50.958;3.124;2023-05-16T13:44:35;1.67;;;0.57;;
37655;SDS011;23498;50.958;3.124;2023-05-16T13:47:01;2.25;;;0.70;;
37655;SDS011;23498;50.958;3.124;2023-05-16T13:49:28;4.47;;;0.60;;
37655;SDS011;23498;50.958;3.124;2023-05-16T13:51:54;1.60;;;0.43;;
37655;SDS011;23498;50.958;3.124;2023-05-16T13:54:21;3.88;;;0.77;;
37655;SDS011;23498;50.958;3.124;2023-05-16T13:56:47;2.55;;;0.80;;
37655;SDS011;23498;50.958;3.124;2023-05-16T13:59:13;5.30;;;1.10;;
37655;SDS011;23498;50.958;3.124;2023-05-16T14:01:39;3.25;;;0.80;;
37655;SDS011;23498;50.958;3.124;2023-05-16T14:04:05;3.15;;;0.82;;
37655;SDS011;23498;50.958;3.124;2023-05-16T14:06:32;3.58;;;0.80;;
37655;SDS011;23498;50.958;3.124;2023-05-16T14:08:58;3.40;;;0.60;;
37655;SDS011;23498;50.958;3.124;2023-05-16T14:11:24;5.25;;;0.95;;
37655;SDS011;23498;50.958;3.124;2023-05-16T14:13:54;3.97;;;0.90;;
37655;SDS011;23498;50.958;3.124;2023-05-16T14:16:20;2.63;;;0.80;;
37655;SDS011;23498;50.958;3.124;2023-05-16T14:18:46;3.65;;;0.90;;
37655;SDS011;23498;50.958;3.124;2023-05-16T14:21:12;1.92;;;0.52;;
37655;SDS011;23498;50.958;3.124;2023-05-16T14:23:39;1.35;;;0.50;;
37655;SDS011;23498;50.958;3.124;2023-05-16T14:26:05;2.35;;;0.65;;
37655;SDS011;23498;50.958;3.124;2023-05-16T14:28:31;3.50;;;0.90;;
37655;SDS011;23498;50.958;3.124;2023-05-16T14:30:57;2.92;;;0.77;;
37655;SDS011;23498;50.958;3.124;2023-05-16T14:33:23;3.15;;;1.00;;
37655;SDS011;23498;50.958;3.124;2023-05-16T14:35:50;2.65;;;0.82;;
37655;SDS011;23498;50.958;3.124;2023-05-16T14:38:16;2.08;;;0.57;;
37655;SDS011;23498;50.958;3.124;2023-05-16T14:40:42;2.90;;;0.80;;
37655;SDS011;23498;50.958;3.124;2023-05-16T14:43:08;3.35;;;0.80;;
37655;SDS011;23498;50.958;3.124;2023-05-16T14:45:35;2.80;;;0.77;;
37655;SDS011;23498;50.958;3.124;2023-05-16T14:48:02;3.90;;;1.40;;
37655;SDS011;23498;50.958;3.124;2023-05-16T14:50:28;3.85;;;1.35;;
37655;SDS011;23498;50.958;3.124;2023-05-16T14:52:54;4.35;;;1.10;;
37655;SDS011;23498;50.958;3.124;2023-05-16T14:55:20;2.90;;;0.80;;
37655;SDS011;23498;50.958;3.124;2023-05-16T14:57:46;4.15;;;0.70;;
37655;SDS011;23498;50.958;3.124;2023-05-16T15:00:13;2.67;;;0.73;;
37655;SDS011;23498;50.958;3.124;2023-05-16T15:02:40;5.30;;;0.90;;
37655;SDS011;23498;50.958;3.124;2023-05-16T15:05:07;3.58;;;0.90;;
37655;SDS011;23498;50.958;3.124;2023-05-16T15:07:34;3.38;;;0.90;;
37655;SDS011;23498;50.958;3.124;2023-05-16T15:10:00;2.35;;;0.80;;
37655;SDS011;23498;50.958;3.124;2023-05-16T15:12:26;3.78;;;0.95;;
37655;SDS011;23498;50.958;3.124;2023-05-16T15:14:52;2.00;;;0.80;;
37655;SDS011;23498;50.958;3.124;2023-05-16T15:17:18;3.78;;;1.15;;